Time;durP1;ratioP1;P1;durP2;ratioP2;P2;SDS_P1;SDS_P2;PMS_P1;PMS_P2;Temp;Humidity;BMP_temperature;BMP_pressure;BME280_temperature;BME280_humidity;BME280_pressure;Samples;Min_cycle;Max_cycle;Signal;HPM_P1;HPM_P2
2021/10/19 00:00:17;;;;;;;23.65;17.63;;;;;;;9.09;100.00;94128.78;5088329;28;20051;-91
2021/10/19 00:02:44;;;;;;;22.58;16.13;;;;;;;8.95;100.00;94128.56;5088256;28;20051;-90
2021/10/19 00:05:13;;;;;;;22.45;16.02;;;;;;;9.04;100.00;94129.31;5088326;28;20398;-91
2021/10/19 00:07:40;;;;;;;21.85;17.67;;;;;;;8.91;100.00;94127.38;5088318;28;20417;-91
2021/10/19 00:10:10;;;;;;;21.23;15.50;;;;;;;9.00;100.00;94137.50;5088310;28;20059;-91
2021/10/19 00:12:38;;;;;;;19.55;15.35;;;;;;;8.99;100.00;94141.84;5088149;28;20585;-91
2021/10/19 00:15:08;;;;;;;31.60;19.30;;;;;;;9.00;100.00;94143.44;5088131;28;20051;-90
2021/10/19 00:17:35;;;;;;;55.65;28.33;;;;;;;9.00;100.00;94142.63;5087892;28;20055;-90
2021/10/19 00:20:02;;;;;;;61.85;29.85;;;;;;;8.72;100.00;94112.50;5088524;28;20044;-91
2021/10/19 00:22:29;;;;;;;50.88;28.95;;;;;;;8.78;100.00;94127.97;5088133;28;20067;-91
2021/10/19 00:25:04;;;;;;;50.38;28.05;;;;;;;8.95;100.00;94143.94;5087858;28;20044;-91
2021/10/19 00:27:32;;;;;;;50.97;29.13;;;;;;;8.95;100.00;94149.06;5087909;28;20063;-91
2021/10/19 00:29:59;;;;;;;53.55;29.20;;;;;;;8.74;100.00;94119.03;5087771;28;20052;-91
2021/10/19 00:32:26;;;;;;;44.63;27.30;;;;;;;8.98;100.00;94145.38;5087932;28;21321;-90
2021/10/19 00:34:53;;;;;;;44.03;26.92;;;;;;;8.84;100.00;94146.16;5087711;28;20056;-90
2021/10/19 00:37:20;;;;;;;45.28;26.58;;;;;;;8.66;100.00;94119.91;5087638;28;20048;-91
2021/10/19 00:39:47;;;;;;;51.00;26.85;;;;;;;8.88;100.00;94148.19;5087621;28;20056;-89
2021/10/19 00:42:14;;;;;;;33.60;22.73;;;;;;;8.65;100.00;94140.56;5087527;28;20052;-91
2021/10/19 00:44:43;;;;;;;29.20;20.55;;;;;;;8.43;100.00;94140.44;5087368;28;20044;-91
2021/10/19 00:47:10;;;;;;;25.13;18.50;;;;;;;8.14;100.00;94126.56;5087460;28;20043;-91
2021/10/19 00:49:37;;;;;;;26.75;19.83;;;;;;;8.27;100.00;94144.69;5087822;28;20937;-90
2021/10/19 00:52:04;;;;;;;27.15;18.88;;;;;;;8.11;100.00;94152.50;5087235;28;20055;-90
2021/10/19 00:54:31;;;;;;;24.33;18.23;;;;;;;8.08;100.00;94147.72;5087386;28;20055;-90
2021/10/19 00:56:58;;;;;;;22.40;17.38;;;;;;;7.92;100.00;94123.81;5087111;28;20048;-90
2021/10/19 00:59:25;;;;;;;22.15;16.77;;;;;;;7.87;100.00;94139.69;5087243;28;20044;-90
2021/10/19 01:01:53;;;;;;;26.35;18.50;;;;;;;7.75;100.00;94139.28;5087205;28;20457;-88
2021/10/19 01:04:20;;;;;;;24.48;18.25;;;;;;;7.72;100.00;94149.84;5087280;28;20044;-92
2021/10/19 01:06:47;;;;;;;25.25;18.92;;;;;;;7.56;100.00;94137.97;5087391;28;20452;-91
2021/10/19 01:09:14;;;;;;;29.75;20.98;;;;;;;7.60;100.00;94154.53;5086873;28;20084;-89
2021/10/19 01:11:41;;;;;;;75.38;45.83;;;;;;;7.42;100.00;94139.47;5086894;28;20456;-90
2021/10/19 01:14:08;;;;;;;108.80;63.20;;;;;;;7.43;100.00;94153.03;5086974;28;20048;-90
2021/10/19 01:16:35;;;;;;;176.63;92.75;;;;;;;7.38;100.00;94150.16;5087112;28;20048;-89
2021/10/19 01:19:03;;;;;;;192.02;91.75;;;;;;;7.37;100.00;94146.03;5086993;28;20044;-90
2021/10/19 01:21:31;;;;;;;71.70;38.78;;;;;;;7.41;100.00;94142.19;5086135;28;20143;-90
2021/10/19 01:23:58;;;;;;;55.33;33.63;;;;;;;7.29;100.00;94124.66;5086204;28;20044;-91
2021/10/19 01:26:25;;;;;;;48.45;28.67;;;;;;;7.30;100.00;94118.56;5086594;28;20036;-91
2021/10/19 01:28:52;;;;;;;32.38;21.35;;;;;;;7.41;100.00;94131.94;5086855;28;20060;-90
2021/10/19 01:31:19;;;;;;;28.23;19.70;;;;;;;7.30;100.00;94130.53;5086574;28;20052;-91
2021/10/19 01:33:46;;;;;;;22.90;16.50;;;;;;;7.30;100.00;94145.88;5086721;28;20406;-91
2021/10/19 01:36:13;;;;;;;72.38;36.63;;;;;;;7.20;100.00;94151.19;5086452;28;20048;-90
2021/10/19 01:38:41;;;;;;;63.38;34.15;;;;;;;7.12;100.00;94133.34;5086554;28;20055;-91
2021/10/19 01:41:08;;;;;;;54.70;29.45;;;;;;;7.20;100.00;94141.78;5086550;28;20048;-91
2021/10/19 01:43:35;;;;;;;55.22;30.65;;;;;;;7.22;100.00;94144.97;5086530;28;20040;-92
2021/10/19 01:46:03;;;;;;;60.95;31.95;;;;;;;7.21;100.00;94150.22;5086401;28;20055;-91
2021/10/19 01:48:33;;;;;;;55.22;29.02;;;;;;;7.25;100.00;94150.69;5086589;28;20044;-91
2021/10/19 01:51:01;;;;;;;51.88;29.13;;;;;;;7.21;100.00;94151.03;5086198;28;20055;-91
2021/10/19 01:53:28;;;;;;;43.90;26.85;;;;;;;7.26;100.00;94144.63;5086097;28;20051;-91
2021/10/19 01:55:58;;;;;;;38.97;23.27;;;;;;;7.21;100.00;94148.47;5086068;28;20418;-92
2021/10/19 01:58:25;;;;;;;39.22;23.52;;;;;;;7.21;100.00;94151.03;5083934;28;20052;-90
2021/10/19 02:00:53;;;;;;;36.17;22.38;;;;;;;7.16;100.00;94160.13;5083488;28;20131;-90
2021/10/19 02:03:21;;;;;;;31.67;21.08;;;;;;;7.00;100.00;94136.25;5083487;28;20044;-91
2021/10/19 02:05:48;;;;;;;33.08;21.80;;;;;;;7.16;100.00;94158.41;5083577;28;20051;-90
2021/10/19 02:08:15;;;;;;;32.65;20.88;;;;;;;7.07;100.00;94155.06;5084328;28;20274;-90
2021/10/19 02:10:41;;;;;;;38.20;24.88;;;;;;;7.05;100.00;94154.41;5085587;28;20044;-91
2021/10/19 02:13:10;;;;;;;36.33;23.13;;;;;;;7.01;100.00;94154.91;5083896;28;20056;-91
2021/10/19 02:15:39;;;;;;;35.08;21.83;;;;;;;6.90;100.00;94159.41;5085627;28;20422;-92
2021/10/19 02:18:08;;;;;;;32.67;21.55;;;;;;;6.80;100.00;94156.22;5085670;28;20044;-91
2021/10/19 02:20:37;;;;;;;28.23;19.70;;;;;;;6.67;100.00;94156.75;5085736;28;20055;-91
2021/10/19 02:23:04;;;;;;;30.38;20.15;;;;;;;6.59;100.00;94146.53;5086039;28;20074;-90
2021/10/19 02:25:31;;;;;;;29.15;19.77;;;;;;;6.61;100.00;94150.53;5085999;28;20040;-90
2021/10/19 02:27:58;;;;;;;29.95;20.65;;;;;;;6.54;100.00;94147.81;5085665;28;20059;-90
2021/10/19 02:30:28;;;;;;;29.92;20.65;;;;;;;6.48;100.00;94152.78;5085805;28;20040;-91
2021/10/19 02:32:55;;;;;;;29.10;20.38;;;;;;;6.48;100.00;94155.34;5085439;28;20414;-91
2021/10/19 02:35:23;;;;;;;28.75;20.48;;;;;;;6.43;100.00;94155.78;5085926;28;20048;-91
2021/10/19 02:37:50;;;;;;;28.05;18.77;;;;;;;6.37;100.00;94156.44;5085780;28;20060;-91
2021/10/19 02:40:18;;;;;;;30.00;20.65;;;;;;;6.29;100.00;94154.69;5085672;28;20044;-90
2021/10/19 02:42:45;;;;;;;27.88;18.90;;;;;;;6.26;100.00;94158.34;5085636;28;20383;-90
2021/10/19 02:45:14;;;;;;;25.23;17.98;;;;;;;5.97;100.00;94125.63;5085605;28;20105;-91
2021/10/19 02:47:46;;;;;;;28.73;18.40;;;;;;;6.12;100.00;94154.66;5085624;28;20101;-90
2021/10/19 02:50:14;;;;;;;25.30;17.00;;;;;;;6.06;100.00;94154.53;5085682;28;20064;-91
2021/10/19 02:52:41;;;;;;;22.92;17.02;;;;;;;6.03;100.00;94157.38;5085656;28;20058;-90
2021/10/19 02:55:10;;;;;;;22.92;15.73;;;;;;;5.79;100.00;94141.84;5085582;28;20066;-91
2021/10/19 02:57:37;;;;;;;21.40;15.45;;;;;;;5.93;100.00;94168.47;5085355;28;20051;-91
2021/10/19 03:00:05;;;;;;;19.08;14.73;;;;;;;5.68;100.00;94149.78;5085414;28;20057;-91
2021/10/19 03:02:32;;;;;;;21.55;16.20;;;;;;;5.74;100.00;94174.69;5085302;28;20058;-90
2021/10/19 03:05:00;;;;;;;21.90;14.52;;;;;;;5.63;100.00;94178.31;5085497;28;20482;-90
2021/10/19 03:07:28;;;;;;;20.50;15.77;;;;;;;5.50;100.00;94170.31;5085394;28;20472;-90
2021/10/19 03:09:57;;;;;;;24.80;17.90;;;;;;;5.45;100.00;94170.75;5085348;28;20452;-90
2021/10/19 03:12:25;;;;;;;29.88;22.80;;;;;;;5.47;100.00;94176.50;5085020;28;20044;-90
2021/10/19 03:14:52;;;;;;;44.70;33.03;;;;;;;5.45;100.00;94175.84;5085302;28;20044;-91
2021/10/19 03:17:21;;;;;;;44.45;30.40;;;;;;;5.42;100.00;94174.41;5085188;28;20059;-90
2021/10/19 03:19:47;;;;;;;33.50;26.25;;;;;;;5.41;100.00;94175.34;5085849;28;20077;-88
2021/10/19 03:22:18;;;;;;;31.40;23.63;;;;;;;5.38;100.00;94178.22;5088980;28;20056;-90
2021/10/19 03:24:45;;;;;;;32.35;23.98;;;;;;;5.31;100.00;94172.13;5089061;28;20051;-90
2021/10/19 03:27:12;;;;;;;36.15;23.10;;;;;;;5.28;100.00;94190.28;5087607;28;20499;-90
2021/10/19 03:29:41;;;;;;;32.10;22.20;;;;;;;5.08;100.00;94168.38;5087854;28;20044;-90
2021/10/19 03:32:15;;;;;;;33.53;22.08;;;;;;;5.28;100.00;94185.97;5088034;28;20044;-90
2021/10/19 03:34:42;;;;;;;31.38;22.23;;;;;;;5.24;100.00;94194.88;5088710;28;20532;-90
2021/10/19 03:37:08;;;;;;;29.58;21.05;;;;;;;5.01;100.00;94158.94;5088520;28;20429;-90
2021/10/19 03:39:37;;;;;;;32.50;21.20;;;;;;;5.19;100.00;94185.13;5088536;28;20048;-89
2021/10/19 03:42:04;;;;;;;27.92;18.48;;;;;;;5.12;100.00;94185.88;5088699;28;20460;-89
2021/10/19 03:44:41;;;;;;;24.88;16.38;;;;;;;5.02;100.00;94188.56;5088951;28;20113;-91
2021/10/19 03:47:09;;;;;;;23.13;16.52;;;;;;;5.02;100.00;94184.28;5088506;28;20140;-91
2021/10/19 03:49:38;;;;;;;21.00;15.43;;;;;;;4.96;100.00;94192.50;5088449;28;20523;-90
2021/10/19 03:52:06;;;;;;;17.70;13.38;;;;;;;4.93;100.00;94188.53;5088209;28;20056;-91
2021/10/19 03:54:32;;;;;;;18.67;12.75;;;;;;;4.95;100.00;94185.78;5088482;28;20036;-90
2021/10/19 03:57:01;;;;;;;18.23;12.88;;;;;;;4.94;100.00;94189.31;5088506;28;20048;-89
2021/10/19 03:59:29;;;;;;;19.40;13.48;;;;;;;4.91;100.00;94190.41;5086147;28;20081;-89
2021/10/19 04:01:56;;;;;;;21.50;15.57;;;;;;;4.75;100.00;94180.13;5087303;28;20062;-90
2021/10/19 04:04:23;;;;;;;21.85;14.40;;;;;;;4.89;100.00;94199.13;5088072;28;20044;-89
2021/10/19 04:06:51;;;;;;;20.38;14.40;;;;;;;4.82;100.00;94198.94;5087869;28;20040;-90
2021/10/19 04:09:19;;;;;;;18.67;13.43;;;;;;;4.74;100.00;94192.06;5088217;28;20052;-90
2021/10/19 04:11:46;;;;;;;18.73;12.90;;;;;;;4.62;100.00;94188.94;5089572;28;20490;-90
2021/10/19 04:14:18;;;;;;;16.30;12.32;;;;;;;4.55;100.00;94196.34;5079672;28;20048;-89
2021/10/19 04:16:47;;;;;;;19.33;14.60;;;;;;;4.10;100.00;94138.78;5082015;28;20047;-90
2021/10/19 04:19:15;;;;;;;19.77;12.93;;;;;;;4.32;100.00;94174.88;5081784;28;20059;-90
2021/10/19 04:21:47;;;;;;;19.02;13.90;;;;;;;4.55;100.00;94215.94;5081877;28;20044;-90
2021/10/19 04:24:16;;;;;;;16.17;11.63;;;;;;;4.05;100.00;94148.59;5083432;28;20051;-89
2021/10/19 04:26:53;;;;;;;16.52;12.10;;;;;;;4.05;100.00;94148.59;5083484;28;20052;-89
2021/10/19 04:29:44;;;;;;;16.77;12.00;;;;;;;3.95;100.00;94143.59;5083791;28;20049;-89
2021/10/19 04:32:28;;;;;;;17.67;12.68;;;;;;;3.64;100.00;94111.69;5081896;28;20040;-89
2021/10/19 04:35:28;;;;;;;;;;;;;;;;;;;;;
2021/10/19 04:37:58;;;;;;;14.80;10.52;;;;;;;3.17;100.00;94065.22;5082326;28;20053;-89
2021/10/19 04:40:37;;;;;;;16.77;10.90;;;;;;;4.12;100.00;94225.91;5081552;28;20051;-89
2021/10/19 04:43:06;;;;;;;17.40;11.32;;;;;;;4.08;100.00;94227.13;5081180;28;20072;-89
2021/10/19 04:45:37;;;;;;;16.52;11.05;;;;;;;4.03;100.00;94219.91;5047717;28;20561;-89
2021/10/19 04:48:06;;;;;;;14.93;10.77;;;;;;;3.88;100.00;94205.19;5065193;28;20098;-89
2021/10/19 04:50:37;;;;;;;16.63;11.18;;;;;;;3.86;100.00;94209.63;5061906;28;20528;-89
2021/10/19 04:53:06;;;;;;;19.27;12.77;;;;;;;3.88;100.00;94230.59;5060583;28;20045;-90
2021/10/19 04:55:33;;;;;;;20.55;14.13;;;;;;;3.72;100.00;94205.81;5062087;28;20045;-89
2021/10/19 04:58:03;;;;;;;25.13;16.08;;;;;;;3.87;100.00;94238.34;5062545;28;20041;-89
2021/10/19 05:00:32;;;;;;;24.77;16.85;;;;;;;3.84;100.00;94241.97;5061270;28;20037;-89
2021/10/19 05:03:04;;;;;;;27.33;16.42;;;;;;;3.69;100.00;94238.31;5069075;28;20044;-89
2021/10/19 05:05:37;;;;;;;26.48;16.92;;;;;;;3.77;100.00;94248.56;5072233;28;20045;-89
2021/10/19 05:08:09;;;;;;;24.58;18.50;;;;;;;3.67;100.00;94242.75;5072459;28;20510;-89
2021/10/19 05:10:36;;;;;;;33.83;23.45;;;;;;;3.66;100.00;94257.16;5072047;28;20049;-90
2021/10/19 05:13:03;;;;;;;52.58;36.53;;;;;;;3.66;100.00;94256.38;5071706;28;20097;-89
2021/10/19 05:15:30;;;;;;;37.63;26.30;;;;;;;3.61;100.00;94256.78;5071827;28;20048;-89
2021/10/19 05:17:59;;;;;;;37.10;25.25;;;;;;;3.60;100.00;94250.94;5072143;28;20041;-89
2021/10/19 05:20:28;;;;;;;36.88;25.42;;;;;;;3.75;100.00;94260.59;5071681;28;20051;-89
2021/10/19 05:22:56;;;;;;;43.72;28.15;;;;;;;3.80;100.00;94270.38;5071997;28;20053;-89
2021/10/19 05:25:25;;;;;;;42.08;27.88;;;;;;;3.93;100.00;94270.03;5071530;28;20514;-89
2021/10/19 05:27:52;;;;;;;42.85;26.83;;;;;;;3.58;100.00;94211.34;5071505;28;20135;-89
2021/10/19 05:30:20;;;;;;;44.83;28.45;;;;;;;3.95;100.00;94276.59;5071673;28;20608;-90
2021/10/19 05:32:48;;;;;;;44.72;30.00;;;;;;;3.79;100.00;94261.94;5071594;28;20048;-89
2021/10/19 05:35:17;;;;;;;42.25;28.42;;;;;;;4.00;100.00;94281.22;5071554;28;20045;-89
2021/10/19 05:37:46;;;;;;;43.25;26.63;;;;;;;4.00;100.00;94276.16;5071531;28;20106;-89
2021/10/19 05:40:13;;;;;;;40.15;25.27;;;;;;;4.11;100.00;94281.03;5071470;28;20045;-89
2021/10/19 05:42:40;;;;;;;36.88;23.00;;;;;;;4.14;100.00;94285.84;5070665;28;20058;-89
2021/10/19 05:45:08;;;;;;;37.45;22.42;;;;;;;4.12;100.00;94295.34;5071370;28;20051;-89
2021/10/19 05:47:34;;;;;;;31.33;21.00;;;;;;;4.23;100.00;94304.53;5071667;28;20040;-89
2021/10/19 05:50:01;;;;;;;29.90;19.77;;;;;;;4.30;100.00;94292.03;5071400;28;20053;-90
2021/10/19 05:52:28;;;;;;;28.02;18.15;;;;;;;4.11;100.00;94272.59;5071156;28;20151;-89
2021/10/19 05:54:57;;;;;;;28.33;18.88;;;;;;;4.30;100.00;94304.75;5071128;28;20048;-89
2021/10/19 05:57:26;;;;;;;28.65;18.63;;;;;;;4.36;100.00;94309.25;5071138;28;20052;-89
2021/10/19 05:59:57;;;;;;;29.70;17.75;;;;;;;4.46;100.00;94308.41;5071036;28;20041;-89
2021/10/19 06:02:30;;;;;;;33.83;18.92;;;;;;;4.53;100.00;94309.41;5071014;28;20048;-89
2021/10/19 06:04:57;;;;;;;30.15;18.85;;;;;;;4.60;100.00;94305.38;5071044;28;20135;-89
2021/10/19 06:07:24;;;;;;;34.28;19.45;;;;;;;4.70;100.00;94310.38;5070960;28;20048;-89
2021/10/19 06:09:50;;;;;;;31.08;18.35;;;;;;;4.76;100.00;94304.69;5071339;28;20438;-89
2021/10/19 06:12:21;;;;;;;40.72;22.25;;;;;;;4.73;100.00;94291.47;5071151;28;20045;-89
2021/10/19 06:14:50;;;;;;;33.40;19.08;;;;;;;4.95;100.00;94315.66;5071177;28;20098;-89
2021/10/19 06:17:18;;;;;;;25.17;15.93;;;;;;;5.04;100.00;94319.06;5070870;28;20051;-89
2021/10/19 06:19:46;;;;;;;21.15;14.63;;;;;;;5.04;100.00;94321.59;5070860;28;20506;-89
2021/10/19 06:22:12;;;;;;;23.10;15.20;;;;;;;5.15;100.00;94318.84;5070735;28;20305;-90
2021/10/19 06:24:45;;;;;;;21.98;15.57;;;;;;;5.19;100.00;94314.25;5071025;28;20056;-90
2021/10/19 06:27:18;;;;;;;22.52;14.68;;;;;;;5.37;100.00;94323.59;5070987;28;20131;-90
2021/10/19 06:29:47;;;;;;;22.77;14.70;;;;;;;5.48;100.00;94325.91;5070766;28;20114;-90
2021/10/19 06:32:14;;;;;;;21.67;15.07;;;;;;;5.60;100.00;94327.25;5070848;28;20486;-90
2021/10/19 06:34:41;;;;;;;22.60;15.07;;;;;;;5.69;100.00;94325.53;5070625;28;20055;-90
2021/10/19 06:37:11;;;;;;;20.85;14.93;;;;;;;5.80;100.00;94332.13;5067286;28;20530;-89
2021/10/19 06:39:38;;;;;;;20.77;15.75;;;;;;;5.95;100.00;94336.66;5070846;28;20058;-90
2021/10/19 06:42:05;;;;;;;26.77;15.68;;;;;;;6.07;100.00;94329.56;5070841;28;20052;-90
2021/10/19 06:44:33;;;;;;;21.70;15.32;;;;;;;6.19;100.00;94330.88;5070631;28;20045;-90
2021/10/19 06:47:01;;;;;;;32.90;16.77;;;;;;;6.31;100.00;94336.50;5070483;28;20048;-90
2021/10/19 06:49:28;;;;;;;22.63;15.80;;;;;;;6.41;100.00;94334.63;5070911;28;20053;-90
2021/10/19 06:51:55;;;;;;;21.17;14.90;;;;;;;6.53;100.00;94339.44;5070781;28;20048;-90
2021/10/19 06:54:22;;;;;;;23.90;15.75;;;;;;;6.64;100.00;94346.00;5073294;28;20049;-90
2021/10/19 06:56:48;;;;;;;22.38;14.15;;;;;;;6.73;100.00;94346.81;5074720;28;20047;-90
2021/10/19 06:59:15;;;;;;;23.23;15.18;;;;;;;6.82;100.00;94346.66;5074687;28;20080;-90
2021/10/19 07:01:42;;;;;;;28.20;18.48;;;;;;;6.87;100.00;94333.44;5074471;28;20136;-90
2021/10/19 07:04:10;;;;;;;24.50;17.25;;;;;;;7.15;100.00;94340.78;5074490;28;20052;-90
2021/10/19 07:06:39;;;;;;;22.83;15.57;;;;;;;7.04;100.00;94313.00;5074749;28;20044;-90
2021/10/19 07:09:07;;;;;;;26.00;17.40;;;;;;;6.48;100.00;94206.38;5074626;28;20051;-91
2021/10/19 07:11:36;;;;;;;27.27;16.83;;;;;;;7.47;100.00;94344.28;5074416;28;20040;-90
2021/10/19 07:14:03;;;;;;;25.90;16.73;;;;;;;7.59;100.00;94343.94;5074262;28;20052;-91
2021/10/19 07:16:40;;;;;;;;;;;;;;;;;;;;;
2021/10/19 07:19:10;;;;;;;26.33;18.77;;;;;;;7.79;100.00;94328.22;5064398;28;20049;-90
2021/10/19 07:21:37;;;;;;;24.40;16.30;;;;;;;8.05;100.00;94342.53;5054517;28;20049;-90
2021/10/19 07:24:04;;;;;;;22.52;15.35;;;;;;;8.11;100.00;94350.31;5054311;28;20041;-89
2021/10/19 07:26:37;;;;;;;16.67;12.10;;;;;;;8.23;100.00;94340.53;5054158;28;20063;-90
2021/10/19 07:29:04;;;;;;;14.50;10.15;;;;;;;8.16;100.00;94342.94;5054376;28;20079;-89
2021/10/19 07:31:35;;;;;;;17.02;11.13;;;;;;;8.22;100.00;94343.25;5054057;28;20495;-90
2021/10/19 07:34:03;;;;;;;20.90;11.93;;;;;;;8.29;100.00;94326.28;5054068;28;20052;-91
2021/10/19 07:36:31;;;;;;;18.98;12.10;;;;;;;8.36;100.00;94316.16;5053890;28;20044;-89
2021/10/19 07:38:58;;;;;;;25.23;12.57;;;;;;;8.60;98.76;94340.84;5053875;28;20049;-89
2021/10/19 07:41:25;;;;;;;15.27;10.65;;;;;;;8.76;97.30;94344.28;5053739;28;20049;-90
2021/10/19 07:43:52;;;;;;;21.60;12.88;;;;;;;8.49;97.46;94313.03;5053996;28;20450;-89
2021/10/19 07:46:19;;;;;;;19.67;11.75;;;;;;;8.83;100.00;94347.75;5053684;28;20053;-91
2021/10/19 07:48:47;;;;;;;15.80;10.50;;;;;;;8.88;100.00;94329.34;5053703;28;20053;-94
2021/10/19 07:51:16;;;;;;;17.77;11.05;;;;;;;9.15;99.64;94343.38;5053770;28;20060;-96
2021/10/19 07:53:44;;;;;;;17.10;12.35;;;;;;;9.16;100.00;94318.56;5053979;28;20049;-89
2021/10/19 07:56:11;;;;;;;18.75;11.88;;;;;;;9.43;100.00;94334.31;5053794;28;20041;-89
2021/10/19 07:58:38;;;;;;;21.15;10.55;;;;;;;9.65;100.00;94330.13;5053778;28;20049;-89
2021/10/19 08:01:05;;;;;;;16.27;9.85;;;;;;;9.65;92.82;94345.53;5053565;28;20052;-89
2021/10/19 08:03:32;;;;;;;12.50;9.45;;;;;;;9.65;92.91;94344.72;5053699;28;20473;-88
2021/10/19 08:05:59;;;;;;;14.40;10.68;;;;;;;9.55;97.17;94321.88;5052683;28;20049;-89
2021/10/19 08:08:26;;;;;;;16.27;10.77;;;;;;;9.77;94.60;94348.47;5053351;28;20052;-89
2021/10/19 08:10:56;;;;;;;18.17;10.45;;;;;;;9.89;91.52;94336.78;5053526;28;20052;-89
2021/10/19 08:13:23;;;;;;;18.48;10.73;;;;;;;10.10;91.69;94350.66;5053169;28;20052;-89
2021/10/19 08:15:52;;;;;;;14.38;10.13;;;;;;;10.26;95.45;94339.41;5053654;28;20114;-90
2021/10/19 08:18:19;;;;;;;16.27;9.90;;;;;;;10.27;90.93;94342.75;5053251;28;20044;-89
2021/10/19 08:20:46;;;;;;;17.27;8.77;;;;;;;10.12;88.37;94347.91;5052991;28;20099;-89
2021/10/19 08:23:12;;;;;;;11.25;7.95;;;;;;;10.32;92.80;94348.16;5053294;28;20053;-88
2021/10/19 08:25:40;;;;;;;14.95;9.02;;;;;;;10.51;90.73;94348.59;5053530;28;20044;-88
2021/10/19 08:28:09;;;;;;;11.73;8.10;;;;;;;10.66;92.92;94349.34;5053174;28;20040;-89
2021/10/19 08:30:36;;;;;;;12.27;8.40;;;;;;;10.83;88.21;94352.50;5053080;28;20052;-89
2021/10/19 08:33:02;;;;;;;13.93;7.30;;;;;;;11.02;89.04;94341.81;5053199;28;20103;-90
2021/10/19 08:35:29;;;;;;;10.77;7.50;;;;;;;11.25;87.55;94351.09;5052764;28;20566;-89
2021/10/19 08:37:56;;;;;;;19.38;8.18;;;;;;;11.50;89.92;94341.19;5052938;28;20454;-89
2021/10/19 08:40:23;;;;;;;14.40;8.57;;;;;;;11.61;81.08;94350.16;5052951;28;20045;-89
2021/10/19 08:42:52;;;;;;;13.23;8.30;;;;;;;11.66;86.24;94334.97;5052819;28;20430;-90
2021/10/19 08:45:22;;;;;;;12.38;7.80;;;;;;;11.86;89.03;94334.28;5053077;28;20442;-89
2021/10/19 08:47:52;;;;;;;13.23;8.68;;;;;;;12.05;87.86;94332.03;5052517;28;20049;-89
2021/10/19 08:50:21;;;;;;;11.93;7.72;;;;;;;12.25;90.30;94327.78;5052546;28;20140;-89
2021/10/19 08:52:49;;;;;;;13.32;8.48;;;;;;;12.49;88.62;94328.25;5055786;28;20426;-89
2021/10/19 08:55:15;;;;;;;11.18;7.35;;;;;;;11.47;79.76;94337.22;5052658;28;20057;-88
2021/10/19 08:57:42;;;;;;;10.73;7.03;;;;;;;11.43;78.91;94341.13;5052518;28;20143;-88
2021/10/19 09:00:11;;;;;;;9.50;6.65;;;;;;;11.44;78.20;94341.94;5052372;28;20281;-89
2021/10/19 09:02:41;;;;;;;13.32;8.07;;;;;;;11.56;80.92;94337.88;5052196;28;20049;-89
2021/10/19 09:05:15;;;;;;;11.63;7.25;;;;;;;11.85;87.68;94335.28;5053606;28;20132;-96
2021/10/19 09:07:53;;;;;;;11.38;7.45;;;;;;;12.07;81.02;94328.28;5053174;28;20052;-87
2021/10/19 09:10:20;;;;;;;12.43;8.30;;;;;;;12.38;88.97;94316.75;5052092;28;20085;-88
2021/10/19 09:12:58;;;;;;;11.52;7.07;;;;;;;12.63;78.95;94321.34;5052209;28;20052;-89
2021/10/19 09:15:26;;;;;;;10.65;6.60;;;;;;;12.81;77.90;94317.44;5051952;28;20514;-89
2021/10/19 09:17:55;;;;;;;9.82;6.60;;;;;;;13.07;83.72;94308.16;5052109;28;20146;-89
2021/10/19 09:20:22;;;;;;;18.02;8.27;;;;;;;13.28;83.91;94309.72;5051974;28;20457;-89
2021/10/19 09:23:06;;;;;;;9.27;5.65;;;;;;;13.39;80.20;94310.94;5052034;28;20059;-88
2021/10/19 09:25:35;;;;;;;8.40;5.38;;;;;;;13.42;73.59;94314.91;5052184;28;20053;-88
2021/10/19 09:28:03;;;;;;;8.60;5.82;;;;;;;13.59;82.20;94298.03;5051863;28;20063;-89
2021/10/19 09:30:36;;;;;;;8.80;5.60;;;;;;;13.73;79.36;94309.13;5052170;28;20491;-92
2021/10/19 09:33:06;;;;;;;8.57;5.45;;;;;;;13.76;80.90;94300.19;5052011;28;20049;-89
2021/10/19 09:35:33;;;;;;;7.68;5.40;;;;;;;13.22;69.99;94308.75;5053017;28;20049;-87
2021/10/19 09:38:01;;;;;;;7.57;5.15;;;;;;;12.90;70.71;94299.97;5051654;28;20057;-89
2021/10/19 09:40:41;;;;;;;9.35;6.40;;;;;;;13.23;77.99;94291.47;5052562;28;20053;-91
2021/10/19 09:43:12;;;;;;;14.82;6.40;;;;;;;13.28;78.54;94255.53;5051845;28;20056;-89
2021/10/19 09:45:44;;;;;;;9.40;5.13;;;;;;;13.51;76.02;94251.00;5051523;28;20582;-91
2021/10/19 09:48:15;;;;;;;8.38;5.00;;;;;;;13.93;75.38;94290.19;5051880;28;20567;-96
2021/10/19 09:50:43;;;;;;;8.85;4.20;;;;;;;13.79;69.25;94288.66;5052167;28;20056;-89
2021/10/19 09:53:11;;;;;;;7.47;4.25;;;;;;;13.80;71.21;94260.03;5051341;28;20135;-88
2021/10/19 09:55:38;;;;;;;11.75;4.68;;;;;;;13.96;66.13;94270.91;5051614;28;20049;-87
2021/10/19 09:58:06;;;;;;;7.32;4.25;;;;;;;13.16;64.17;94205.56;5051292;28;20522;-89
2021/10/19 10:00:33;;;;;;;8.15;4.40;;;;;;;13.82;70.48;94267.56;5051282;28;20055;-90
2021/10/19 10:03:03;;;;;;;8.38;4.57;;;;;;;14.01;69.96;94269.31;5051112;28;20053;-88
2021/10/19 10:05:31;;;;;;;11.07;4.95;;;;;;;14.22;69.36;94266.66;5051414;28;20048;-89
2021/10/19 10:07:59;;;;;;;7.43;4.28;;;;;;;14.33;67.25;94271.16;5051319;28;20053;-89
2021/10/19 10:10:27;;;;;;;8.27;4.78;;;;;;;14.50;67.25;94268.09;5052149;28;20453;-89
2021/10/19 10:13:02;;;;;;;10.10;4.85;;;;;;;14.61;72.40;94256.28;5055607;28;20142;-90
2021/10/19 10:15:34;;;;;;;7.68;4.85;;;;;;;14.63;68.59;94252.50;5071424;28;20059;-89
2021/10/19 10:18:03;;;;;;;7.32;4.63;;;;;;;14.69;64.47;94262.00;5071271;28;20045;-86
2021/10/19 10:20:34;;;;;;;7.70;5.07;;;;;;;14.56;67.17;94256.91;5071157;28;20055;-86
2021/10/19 10:23:17;;;;;;;7.15;4.72;;;;;;;14.68;69.95;94250.06;5071086;28;20506;-85
2021/10/19 10:25:44;;;;;;;9.38;4.63;;;;;;;14.65;66.58;94247.13;5071280;28;20044;-88
2021/10/19 10:28:14;;;;;;;8.20;4.70;;;;;;;14.78;66.28;94238.50;5071305;28;20048;-87
2021/10/19 10:30:41;;;;;;;7.97;4.68;;;;;;;14.87;70.22;94233.88;5071571;28;20044;-89
2021/10/19 10:33:08;;;;;;;7.13;4.60;;;;;;;15.04;65.82;94232.34;5071167;28;20052;-88
2021/10/19 10:35:43;;;;;;;6.20;4.13;;;;;;;15.04;58.20;94228.97;5070641;28;20056;-88
2021/10/19 10:38:10;;;;;;;6.25;4.53;;;;;;;15.14;65.98;94220.72;5070895;28;20061;-88
2021/10/19 10:40:40;;;;;;;7.03;4.35;;;;;;;15.32;70.66;94217.38;5070750;28;20044;-91
2021/10/19 10:43:19;;;;;;;5.90;4.05;;;;;;;15.43;67.11;94215.88;5070796;28;20045;-88
2021/10/19 10:45:47;;;;;;;7.13;4.65;;;;;;;15.54;67.49;94222.91;5070883;28;20040;-89
2021/10/19 10:48:16;;;;;;;7.43;4.28;;;;;;;15.65;65.09;94213.66;5070854;28;20106;-89
2021/10/19 10:50:44;;;;;;;6.15;4.55;;;;;;;15.72;64.80;94213.56;5070553;28;20414;-88
2021/10/19 10:53:13;;;;;;;5.45;3.97;;;;;;;15.77;63.48;94208.53;5070635;28;20403;-88
2021/10/19 10:55:42;;;;;;;7.85;4.57;;;;;;;15.82;67.39;94208.66;5070579;28;20057;-89
2021/10/19 10:58:10;;;;;;;7.93;4.35;;;;;;;15.97;66.29;94205.72;5070557;28;20048;-88
2021/10/19 11:00:37;;;;;;;6.22;4.32;;;;;;;15.54;59.35;94206.59;5070629;28;20071;-87
2021/10/19 11:03:08;;;;;;;7.75;4.60;;;;;;;15.12;57.71;94160.59;5070601;28;20048;-88
2021/10/19 11:05:36;;;;;;;6.35;3.55;;;;;;;15.22;59.53;94195.34;5070671;28;20086;-87
2021/10/19 11:08:05;;;;;;;7.65;4.18;;;;;;;15.15;62.42;94207.56;5070740;28;20102;-87
2021/10/19 11:10:32;;;;;;;6.75;3.70;;;;;;;14.88;64.25;94148.31;5070692;28;20049;-92
2021/10/19 11:13:01;;;;;;;8.07;3.88;;;;;;;14.56;61.80;94205.22;5071480;28;20098;-87
2021/10/19 11:15:29;;;;;;;5.63;3.45;;;;;;;14.72;65.33;94179.84;5070562;28;20496;-89
2021/10/19 11:17:57;;;;;;;6.72;4.07;;;;;;;14.91;61.69;94197.00;5070357;28;20505;-89
2021/10/19 11:20:26;;;;;;;8.50;4.30;;;;;;;15.06;64.75;94186.38;5070338;28;20049;-88
2021/10/19 11:22:53;;;;;;;6.50;3.95;;;;;;;14.41;57.30;94157.19;5070464;28;20044;-88
2021/10/19 11:25:22;;;;;;;6.03;4.07;;;;;;;14.88;63.72;94175.97;5070207;28;20048;-90
2021/10/19 11:27:52;;;;;;;5.93;4.10;;;;;;;15.09;65.32;94164.44;5070053;28;20044;-88
2021/10/19 11:30:23;;;;;;;6.68;4.00;;;;;;;15.32;63.30;94191.50;5070918;28;20053;-88